Time;durP1;ratioP1;P1;durP2;ratioP2;P2;SDS_P1;SDS_P2;PMS_P1;PMS_P2;Temp;Humidity;BMP_temperature;BMP_pressure;BME280_temperature;BME280_humidity;BME280_pressure;Samples;Min_cycle;Max_cycle;Signal;HPM_P1;HPM_P2
2021/06/04 00:00:26;;;;;;;13.77;10.97;;;18.80;97.10;;;;;;5239040;27;20157;-60
2021/06/04 00:02:54;;;;;;;16.30;11.93;;;18.80;97.30;;;;;;5237888;27;20115;-64
2021/06/04 00:05:24;;;;;;;13.53;11.87;;;18.80;97.50;;;;;;5239024;27;20119;-61
2021/06/04 00:07:50;;;;;;;15.63;11.10;;;18.70;97.80;;;;;;5238742;27;20118;-62
2021/06/04 00:10:25;;;;;;;19.67;12.63;;;18.60;97.80;;;;;;5238775;27;20119;-61
2021/06/04 00:12:51;;;;;;;21.30;12.87;;;18.60;97.90;;;;;;5237786;27;20447;-60
2021/06/04 00:15:24;;;;;;;15.17;11.87;;;18.50;98.00;;;;;;5238358;27;20153;-62
2021/06/04 00:17:52;;;;;;;17.03;12.70;;;18.50;98.00;;;;;;5238501;27;20103;-62
2021/06/04 00:20:27;;;;;;;15.63;12.97;;;18.50;98.50;;;;;;5238975;27;20131;-60
2021/06/04 00:22:53;;;;;;;17.30;12.93;;;18.40;98.40;;;;;;5122061;27;3217962;-61
2021/06/04 00:25:21;;;;;;;17.43;11.80;;;18.40;98.50;;;;;;5240257;27;20504;-61
2021/06/04 00:27:47;;;;;;;16.50;12.57;;;18.40;98.70;;;;;;5239742;27;20594;-64
2021/06/04 00:30:16;;;;;;;15.67;13.90;;;18.30;98.80;;;;;;5240371;27;20525;-63
2021/06/04 00:32:45;;;;;;;15.53;12.67;;;18.20;98.90;;;;;;5239345;27;20107;-61
2021/06/04 00:35:13;;;;;;;15.30;13.30;;;18.20;99.10;;;;;;5239678;27;20528;-62
2021/06/04 00:37:39;;;;;;;15.80;13.80;;;18.10;99.20;;;;;;5239295;27;20104;-64
2021/06/04 00:40:09;;;;;;;17.50;13.90;;;18.10;99.30;;;;;;5240788;27;20118;-62
2021/06/04 00:42:36;;;;;;;20.70;13.80;;;18.00;99.40;;;;;;5238957;27;20155;-61
2021/06/04 00:45:08;;;;;;;20.57;13.30;;;18.00;99.30;;;;;;5239870;27;20107;-61
2021/06/04 00:47:38;;;;;;;15.67;13.93;;;17.90;99.80;;;;;;5239507;27;20107;-64
2021/06/04 00:50:06;;;;;;;16.30;13.10;;;17.90;99.80;;;;;;5239399;27;20175;-61
2021/06/04 00:52:36;;;;;;;18.27;14.03;;;17.80;99.60;;;;;;5239089;27;20467;-61
2021/06/04 00:55:09;;;;;;;16.70;13.80;;;17.80;99.90;;;;;;5241777;27;20107;-63
2021/06/04 00:57:40;;;;;;;19.87;13.80;;;17.80;99.90;;;;;;5238920;27;20472;-61
2021/06/04 01:00:13;;;;;;;16.83;14.40;;;17.80;99.90;;;;;;5238741;27;20146;-61
2021/06/04 01:02:40;;;;;;;18.93;13.37;;;17.70;99.80;;;;;;5240628;27;20111;-61
2021/06/04 01:05:09;;;;;;;17.37;13.33;;;17.70;99.90;;;;;;5239131;27;20151;-61
2021/06/04 01:07:57;;;;;;;18.20;12.97;;;17.60;99.90;;;;;;5237295;27;20135;-62
2021/06/04 01:10:33;;;;;;;19.73;13.83;;;17.70;99.90;;;;;;5238951;27;20483;-63
2021/06/04 01:13:10;;;;;;;20.43;14.33;;;17.60;99.90;;;;;;5236562;27;20154;-63
2021/06/04 01:15:58;;;;;;;17.53;14.27;;;17.60;99.90;;;;;;5236839;27;20127;-61
2021/06/04 01:18:37;;;;;;;18.10;13.70;;;17.50;99.90;;;;;;5240978;27;20130;-62
2021/06/04 01:21:08;;;;;;;18.43;15.00;;;17.50;99.90;;;;;;5238775;27;20108;-62
2021/06/04 01:23:50;;;;;;;18.00;14.83;;;17.40;99.90;;;;;;5238499;27;20154;-62
2021/06/04 01:26:23;;;;;;;19.67;14.83;;;17.40;99.90;;;;;;5239058;27;20108;-62
2021/06/04 01:28:52;;;;;;;17.83;15.13;;;17.40;99.90;;;;;;5238978;27;20123;-63
2021/06/04 01:31:22;;;;;;;16.60;14.90;;;17.30;99.90;;;;;;5239887;27;20509;-64
2021/06/04 01:33:58;;;;;;;17.77;14.23;;;17.30;99.90;;;;;;5238816;27;20167;-61
2021/06/04 01:36:27;;;;;;;18.90;14.23;;;17.30;99.90;;;;;;5238522;27;20154;-59
2021/06/04 01:38:57;;;;;;;18.73;14.83;;;17.30;99.90;;;;;;5238735;27;20126;-63
2021/06/04 01:41:29;;;;;;;18.90;15.93;;;17.40;99.90;;;;;;5239266;27;20107;-61
2021/06/04 01:43:59;;;;;;;19.10;16.00;;;17.30;99.90;;;;;;5238347;27;20159;-64
2021/06/04 01:46:29;;;;;;;22.40;17.80;;;17.30;99.90;;;;;;5239535;27;20404;-60
2021/06/04 01:49:00;;;;;;;22.40;16.33;;;17.30;99.90;;;;;;5239019;27;20118;-59
2021/06/04 01:51:34;;;;;;;22.67;17.07;;;17.20;99.90;;;;;;5240783;27;20467;-62
2021/06/04 01:54:04;;;;;;;20.87;15.67;;;17.20;99.90;;;;;;5240876;27;20107;-60
2021/06/04 01:56:37;;;;;;;19.33;15.73;;;17.10;99.90;;;;;;5238569;27;20150;-60
2021/06/04 01:59:08;;;;;;;23.77;16.83;;;17.10;99.90;;;;;;5238739;27;20107;-60
2021/06/04 02:01:38;;;;;;;19.00;16.17;;;17.10;99.90;;;;;;5240375;27;20512;-61
2021/06/04 02:04:06;;;;;;;20.43;16.10;;;17.10;99.90;;;;;;5240892;27;20107;-60
2021/06/04 02:06:33;;;;;;;23.37;18.03;;;17.00;99.90;;;;;;5238677;27;20112;-59
2021/06/04 02:09:01;;;;;;;19.57;16.20;;;17.00;99.90;;;;;;5238947;27;20137;-61
2021/06/04 02:11:30;;;;;;;20.93;17.03;;;17.00;99.90;;;;;;5238730;27;20135;-62
2021/06/04 02:14:01;;;;;;;21.40;15.90;;;17.00;99.90;;;;;;5239570;27;20479;-64
2021/06/04 02:16:45;;;;;;;20.60;16.10;;;16.90;99.90;;;;;;5238622;27;20150;-61
2021/06/04 02:19:21;;;;;;;21.60;17.37;;;16.90;99.90;;;;;;5239342;27;20106;-61
2021/06/04 02:21:53;;;;;;;22.87;17.00;;;16.80;99.90;;;;;;5240223;27;20166;-63
2021/06/04 02:24:28;;;;;;;23.37;17.77;;;16.80;99.90;;;;;;5239723;27;20135;-63
2021/06/04 02:27:00;;;;;;;24.17;18.20;;;16.80;99.90;;;;;;5242044;27;20099;-61
2021/06/04 02:29:34;;;;;;;26.10;18.27;;;16.80;99.90;;;;;;5240344;27;20107;-62
2021/06/04 02:32:08;;;;;;;28.10;18.17;;;16.70;99.90;;;;;;5240220;27;20118;-59
2021/06/04 02:34:40;;;;;;;25.07;18.17;;;16.70;99.90;;;;;;5240007;27;20107;-63
2021/06/04 02:37:16;;;;;;;27.03;19.20;;;16.70;99.90;;;;;;5240032;27;20103;-63
2021/06/04 02:39:46;;;;;;;24.37;18.60;;;16.60;99.90;;;;;;5240027;27;20107;-61
2021/06/04 02:42:16;;;;;;;24.07;18.63;;;16.60;99.90;;;;;;5240053;27;20111;-64
2021/06/04 02:44:48;;;;;;;25.40;18.90;;;16.60;99.90;;;;;;5239671;27;20154;-60
2021/06/04 02:47:17;;;;;;;23.57;18.57;;;16.60;99.90;;;;;;5240355;27;20111;-62
2021/06/04 02:49:44;;;;;;;22.87;19.33;;;16.50;99.90;;;;;;5240299;27;20111;-60
2021/06/04 02:52:35;;;;;;;24.43;18.93;;;16.50;99.90;;;;;;5240342;27;20174;-62
2021/06/04 02:55:05;;;;;;;28.20;20.33;;;16.40;99.90;;;;;;5240166;27;20154;-60
2021/06/04 02:57:36;;;;;;;28.17;19.77;;;16.40;99.90;;;;;;5240351;27;20107;-61
2021/06/04 03:00:08;;;;;;;29.70;20.87;;;16.40;99.90;;;;;;5240095;27;20122;-61
2021/06/04 03:02:35;;;;;;;30.07;20.33;;;16.40;99.90;;;;;;5239876;27;20104;-63
2021/06/04 03:05:09;;;;;;;32.00;20.30;;;16.40;99.90;;;;;;5241198;27;20122;-65
2021/06/04 03:07:40;;;;;;;28.80;21.20;;;16.40;99.90;;;;;;5241260;27;20158;-60
2021/06/04 03:10:11;;;;;;;27.10;20.87;;;16.30;99.90;;;;;;5240112;27;20155;-63
2021/06/04 03:12:40;;;;;;;27.20;22.53;;;16.30;99.90;;;;;;5242340;27;20121;-60
2021/06/04 03:15:13;;;;;;;29.53;22.57;;;16.30;99.90;;;;;;5240072;27;20138;-62
2021/06/04 03:20:29;;;;;;;30.13;20.57;;;16.30;99.90;;;;;;5237921;27;20526;-60
2021/06/04 03:22:56;;;;;;;27.63;20.53;;;16.20;99.90;;;;;;5239911;27;20117;-60
2021/06/04 03:25:26;;;;;;;28.80;22.10;;;16.20;99.90;;;;;;5240026;27;20138;-63
2021/06/04 03:27:54;;;;;;;31.10;21.83;;;16.20;99.90;;;;;;5239700;27;20143;-60
2021/06/04 03:30:25;;;;;;;33.07;21.93;;;16.20;99.90;;;;;;5239565;27;20504;-60
2021/06/04 03:32:52;;;;;;;31.93;21.70;;;16.20;99.90;;;;;;5239289;27;20104;-61
2021/06/04 03:35:21;;;;;;;29.93;21.20;;;16.20;99.90;;;;;;5241266;27;20138;-62
2021/06/04 03:37:47;;;;;;;28.20;21.10;;;16.20;99.90;;;;;;5239875;27;20436;-60
2021/06/04 03:40:19;;;;;;;26.70;20.27;;;16.20;99.90;;;;;;5239765;27;20173;-60
2021/06/04 03:42:45;;;;;;;27.27;19.93;;;16.20;99.90;;;;;;5239824;27;20571;-62
2021/06/04 03:45:15;;;;;;;26.73;19.83;;;16.20;99.90;;;;;;5239630;27;20119;-60
2021/06/04 03:47:43;;;;;;;24.50;18.37;;;16.20;99.90;;;;;;5239823;27;20123;-60
2021/06/04 03:50:11;;;;;;;25.40;17.83;;;16.30;99.90;;;;;;5239663;27;20516;-62
2021/06/04 03:52:38;;;;;;;24.40;18.40;;;16.30;99.90;;;;;;5239428;27;20127;-61
2021/06/04 03:55:08;;;;;;;23.70;18.50;;;16.30;99.90;;;;;;5238789;27;20434;-60
2021/06/04 03:57:39;;;;;;;24.97;18.77;;;16.40;99.90;;;;;;5240986;27;20124;-61
2021/06/04 04:00:11;;;;;;;25.50;19.40;;;16.40;99.90;;;;;;5239770;27;20530;-60
2021/06/04 04:02:37;;;;;;;20.47;17.90;;;16.40;99.90;;;;;;5240580;27;20166;-61
2021/06/04 04:05:07;;;;;;;24.63;18.33;;;16.50;99.90;;;;;;5239730;27;20111;-60
2021/06/04 04:07:33;;;;;;;25.80;18.93;;;16.50;99.90;;;;;;5239231;27;20108;-61
2021/06/04 04:10:00;;;;;;;24.03;18.23;;;16.60;99.90;;;;;;5239745;27;20544;-62
2021/06/04 04:12:29;;;;;;;22.53;17.03;;;16.70;99.90;;;;;;5239458;27;20451;-60
2021/06/04 04:14:55;;;;;;;21.30;16.37;;;16.70;99.90;;;;;;5239541;27;20151;-61
2021/06/04 04:17:24;;;;;;;19.30;16.17;;;16.80;99.90;;;;;;5238772;27;20119;-63
2021/06/04 04:19:51;;;;;;;22.90;17.30;;;16.80;99.90;;;;;;5239598;27;20532;-62
2021/06/04 04:22:19;;;;;;;22.47;18.37;;;16.90;99.90;;;;;;5238903;27;20104;-63
2021/06/04 04:24:45;;;;;;;23.77;18.20;;;16.90;99.90;;;;;;5239421;27;20136;-60
2021/06/04 04:27:12;;;;;;;26.17;18.47;;;17.00;99.90;;;;;;5238662;27;20170;-60
2021/06/04 04:29:38;;;;;;;21.10;16.67;;;17.00;99.90;;;;;;5239519;27;20178;-60
2021/06/04 04:32:12;;;;;;;22.43;17.27;;;17.10;99.90;;;;;;5239530;27;20107;-62
2021/06/04 04:34:39;;;;;;;18.67;15.87;;;17.10;99.90;;;;;;5238957;27;20621;-59
2021/06/04 04:37:07;;;;;;;22.07;18.43;;;17.20;99.90;;;;;;5241486;27;20107;-61
2021/06/04 04:39:37;;;;;;;24.20;18.67;;;17.20;99.90;;;;;;5239850;27;20118;-61
2021/06/04 04:42:08;;;;;;;25.53;18.30;;;17.40;99.90;;;;;;5238878;27;20155;-60
2021/06/04 04:44:37;;;;;;;22.33;18.13;;;17.50;99.90;;;;;;5239177;27;20138;-59
2021/06/04 04:47:05;;;;;;;22.40;17.93;;;17.50;99.90;;;;;;5239734;27;20112;-63
2021/06/04 04:49:32;;;;;;;27.53;19.67;;;17.50;99.90;;;;;;5239502;27;20134;-62
2021/06/04 04:51:58;;;;;;;23.03;19.53;;;17.60;99.90;;;;;;5239836;27;20154;-60
2021/06/04 04:54:24;;;;;;;24.27;20.03;;;17.70;99.90;;;;;;5238874;27;20191;-60
2021/06/04 04:56:52;;;;;;;23.67;19.20;;;17.70;99.90;;;;;;5239110;27;20162;-60
2021/06/04 04:59:19;;;;;;;29.43;20.43;;;17.80;99.90;;;;;;5239813;27;20174;-60
2021/06/04 05:01:45;;;;;;;22.50;19.63;;;17.80;99.90;;;;;;5240258;27;20570;-61
2021/06/04 05:04:12;;;;;;;25.47;19.83;;;18.00;99.90;;;;;;5240740;27;20136;-61
2021/06/04 05:06:39;;;;;;;24.23;18.77;;;18.50;99.90;;;;;;5240190;27;20138;-63
2021/06/04 05:09:07;;;;;;;27.40;21.67;;;18.90;99.90;;;;;;5240014;27;20444;-61
2021/06/04 05:11:33;;;;;;;26.17;20.43;;;18.90;99.90;;;;;;5238809;27;20104;-63
2021/06/04 05:14:01;;;;;;;24.90;19.07;;;18.90;99.90;;;;;;5240807;27;20131;-60
2021/06/04 05:16:27;;;;;;;31.70;22.27;;;18.90;99.90;;;;;;5241448;27;20123;-61
2021/06/04 05:18:54;;;;;;;29.83;22.70;;;19.00;99.90;;;;;;5239041;27;20127;-61
2021/06/04 05:21:20;;;;;;;29.63;21.83;;;19.20;99.90;;;;;;5238159;27;20147;-61
2021/06/04 05:23:47;;;;;;;32.13;22.80;;;19.60;99.90;;;;;;5238577;27;20124;-61
2021/06/04 05:26:14;;;;;;;29.87;23.10;;;20.50;99.90;;;;;;5238407;27;20107;-61
2021/06/04 05:28:44;;;;;;;27.30;21.73;;;21.30;98.50;;;;;;5238914;27;20123;-60
2021/06/04 05:31:13;;;;;;;28.90;22.77;;;21.60;98.20;;;;;;5236262;27;20139;-63
2021/06/04 05:33:49;;;;;;;28.07;22.40;;;21.50;97.70;;;;;;5237238;27;20159;-64
2021/06/04 05:36:18;;;;;;;32.43;25.23;;;21.40;98.00;;;;;;5235969;27;20127;-61
2021/06/04 05:38:45;;;;;;;33.10;24.00;;;21.30;97.80;;;;;;5238645;27;20107;-60
2021/06/04 05:41:12;;;;;;;32.07;24.47;;;21.40;97.90;;;;;;5238883;27;20122;-61
2021/06/04 05:43:40;;;;;;;32.20;22.73;;;22.80;96.80;;;;;;5237504;27;20157;-61
2021/06/04 05:46:11;;;;;;;29.03;22.17;;;25.20;92.70;;;;;;5238840;27;20107;-64
2021/06/04 05:48:40;;;;;;;27.33;21.20;;;26.40;90.20;;;;;;5240389;27;20118;-63
2021/06/04 05:51:10;;;;;;;26.80;22.07;;;27.10;87.00;;;;;;5238941;27;20122;-62
2021/06/04 05:53:38;;;;;;;29.20;22.83;;;26.60;86.20;;;;;;5239176;27;20104;-62
2021/06/04 05:56:06;;;;;;;28.97;21.70;;;25.60;88.10;;;;;;5238876;27;20108;-62
2021/06/04 05:58:33;;;;;;;27.73;22.87;;;24.60;90.50;;;;;;5239131;27;20111;-62
2021/06/04 06:01:06;;;;;;;26.37;22.70;;;23.90;91.60;;;;;;5238485;27;20109;-62
2021/06/04 06:03:34;;;;;;;34.17;23.90;;;23.30;92.50;;;;;;5240162;27;20134;-63
2021/06/04 06:06:02;;;;;;;30.53;23.27;;;23.00;92.80;;;;;;5239740;27;20496;-62
2021/06/04 06:08:28;;;;;;;30.30;23.63;;;22.90;93.50;;;;;;5238655;27;20139;-64
2021/06/04 06:10:55;;;;;;;29.60;21.80;;;22.70;93.00;;;;;;5238588;27;20123;-62
2021/06/04 06:13:22;;;;;;;27.50;22.03;;;22.60;93.40;;;;;;5238772;27;20138;-62
2021/06/04 06:15:50;;;;;;;32.43;24.97;;;22.60;93.40;;;;;;5238724;27;20552;-62
2021/06/04 06:18:16;;;;;;;29.53;22.33;;;22.50;93.80;;;;;;5238631;27;20162;-64
2021/06/04 06:20:44;;;;;;;25.67;21.07;;;22.10;94.00;;;;;;5238693;27;20536;-63
2021/06/04 06:23:15;;;;;;;30.47;23.70;;;22.10;94.70;;;;;;5239486;27;20150;-63
2021/06/04 06:25:44;;;;;;;29.80;22.40;;;22.10;94.60;;;;;;5238353;27;20135;-62
2021/06/04 06:28:14;;;;;;;28.90;21.40;;;22.20;94.70;;;;;;5238194;27;20137;-62
2021/06/04 06:30:47;;;;;;;33.13;22.27;;;22.30;94.30;;;;;;5238908;27;20096;-62
2021/06/04 06:33:14;;;;;;;36.57;25.00;;;22.30;94.20;;;;;;5241263;27;20129;-62
2021/06/04 06:35:43;;;;;;;35.23;25.80;;;22.40;94.70;;;;;;5239371;27;20119;-65
2021/06/04 06:38:11;;;;;;;39.73;23.00;;;22.30;94.50;;;;;;5239075;27;20431;-61
2021/06/04 06:40:39;;;;;;;33.47;21.87;;;22.40;94.50;;;;;;5238718;27;20107;-61
2021/06/04 06:43:07;;;;;;;32.77;24.50;;;22.40;94.20;;;;;;5239384;27;20124;-63
2021/06/04 06:45:33;;;;;;;27.60;23.57;;;22.50;93.90;;;;;;5239169;27;20108;-61
2021/06/04 06:48:00;;;;;;;30.70;23.97;;;22.60;94.40;;;;;;5239462;27;20107;-63
2021/06/04 06:50:30;;;;;;;28.90;22.97;;;22.70;94.40;;;;;;5238364;27;20155;-62
2021/06/04 06:52:56;;;;;;;28.53;23.90;;;22.70;94.20;;;;;;5239084;27;20122;-62
2021/06/04 06:55:24;;;;;;;29.93;24.50;;;22.80;93.80;;;;;;5238602;27;20139;-63
2021/06/04 06:57:51;;;;;;;30.13;21.83;;;22.90;93.90;;;;;;5238801;27;20107;-63
2021/06/04 07:00:21;;;;;;;25.13;20.50;;;22.90;93.70;;;;;;5240359;27;20108;-62
2021/06/04 07:02:47;;;;;;;24.57;19.90;;;23.00;93.20;;;;;;5241035;27;20146;-62
2021/06/04 07:05:15;;;;;;;29.47;21.73;;;23.10;93.20;;;;;;5239490;27;20108;-63
2021/06/04 07:07:41;;;;;;;25.00;20.60;;;23.20;93.00;;;;;;5239590;27;20127;-65
2021/06/04 07:10:10;;;;;;;25.07;20.70;;;23.40;92.90;;;;;;5239724;27;20111;-65
2021/06/04 07:12:39;;;;;;;22.87;19.70;;;24.00;92.20;;;;;;5239716;27;20104;-65
2021/06/04 07:15:10;;;;;;;24.67;20.10;;;24.60;91.30;;;;;;5241533;27;20145;-65
2021/06/04 07:17:38;;;;;;;30.70;23.12;;;24.90;90.90;;;;;;5241824;27;20107;-62
2021/06/04 07:20:07;;;;;;;30.52;21.05;;;25.00;90.40;;;;;;5239712;27;20135;-62
2021/06/04 07:22:34;;;;;;;29.55;22.95;;;25.80;89.80;;;;;;5240692;27;20516;-64
2021/06/04 07:25:02;;;;;;;26.48;21.48;;;27.90;84.20;;;;;;5239320;27;20136;-60
2021/06/04 07:27:30;;;;;;;24.02;20.02;;;29.50;79.70;;;;;;5239549;27;20138;-63
2021/06/04 07:29:58;;;;;;;22.95;20.37;;;29.90;78.50;;;;;;5241036;27;20124;-61
2021/06/04 07:32:24;;;;;;;21.02;18.73;;;30.50;76.30;;;;;;5239517;27;20554;-64
2021/06/04 07:34:54;;;;;;;25.00;19.55;;;32.10;72.70;;;;;;5241159;27;20455;-63
2021/06/04 07:37:21;;;;;;;22.23;16.12;;;32.00;69.90;;;;;;5239800;27;20186;-61
2021/06/04 07:39:47;;;;;;;22.33;17.12;;;31.50;70.20;;;;;;5239858;27;20144;-61
2021/06/04 07:42:16;;;;;;;22.52;17.90;;;31.00;69.20;;;;;;5240610;27;20464;-60
2021/06/04 07:44:45;;;;;;;21.35;16.42;;;31.50;69.90;;;;;;5239976;27;20107;-61
2021/06/04 07:47:13;;;;;;;21.50;17.70;;;32.40;70.00;;;;;;5239568;27;20107;-64
2021/06/04 07:49:40;;;;;;;20.62;16.85;;;33.70;67.40;;;;;;5239934;27;20108;-62
2021/06/04 07:52:07;;;;;;;17.35;15.27;;;35.20;65.20;;;;;;5240598;27;20845;-65
2021/06/04 07:54:36;;;;;;;19.20;15.07;;;37.10;60.20;;;;;;5241013;27;20166;-61
2021/06/04 07:57:04;;;;;;;22.73;15.75;;;38.10;57.30;;;;;;5238957;27;20138;-62
2021/06/04 07:59:30;;;;;;;20.98;18.45;;;38.60;54.50;;;;;;5240247;27;20118;-63
2021/06/04 08:01:56;;;;;;;20.23;17.15;;;40.90;51.10;;;;;;5239586;27;20123;-63
2021/06/04 08:04:25;;;;;;;18.62;14.00;;;43.20;47.10;;;;;;5239285;27;20108;-59
2021/06/04 08:06:51;;;;;;;15.85;14.32;;;45.20;43.80;;;;;;5239028;27;20123;-61
2021/06/04 08:09:18;;;;;;;16.75;13.88;;;46.90;40.80;;;;;;5239844;27;20211;-61
2021/06/04 08:11:47;;;;;;;15.93;14.25;;;48.50;39.30;;;;;;5242076;27;20636;-65
2021/06/04 08:14:18;;;;;;;15.90;13.40;;;49.70;37.00;;;;;;5240414;27;20138;-61
2021/06/04 08:16:47;;;;;;;12.00;10.23;;;50.80;35.40;;;;;;5240351;27;20130;-61
2021/06/04 08:19:17;;;;;;;14.38;11.20;;;51.60;34.70;;;;;;5238931;27;20144;-63
2021/06/04 08:21:47;;;;;;;13.30;10.75;;;52.30;33.40;;;;;;5241820;27;20107;-64
2021/06/04 08:24:17;;;;;;;17.45;14.52;;;53.20;32.60;;;;;;5238907;27;20124;-62
2021/06/04 08:26:44;;;;;;;11.77;10.45;;;53.90;32.10;;;;;;5238454;27;20174;-63
2021/06/04 08:29:12;;;;;;;12.75;10.63;;;53.70;31.60;;;;;;5239798;27;20115;-65
2021/06/04 08:31:41;;;;;;;10.68;9.68;;;53.90;31.30;;;;;;5239283;27;20151;-64
2021/06/04 08:34:08;;;;;;;11.55;10.35;;;54.40;30.90;;;;;;5239201;27;20116;-61
2021/06/04 08:36:38;;;;;;;12.25;10.80;;;54.60;30.60;;;;;;5239466;27;20173;-62
2021/06/04 08:39:10;;;;;;;10.10;9.10;;;55.10;30.10;;;;;;5239377;27;20512;-63
2021/06/04 08:41:43;;;;;;;13.25;11.40;;;55.20;30.30;;;;;;5239076;27;20107;-62
2021/06/04 08:44:39;;;;;;;14.55;12.20;;;54.70;29.70;;;;;;5238935;27;20143;-65
2021/06/04 08:47:16;;;;;;;11.45;9.38;;;55.00;29.90;;;;;;5239834;27;20157;-62
2021/06/04 08:49:58;;;;;;;13.30;10.75;;;53.90;30.00;;;;;;5238837;27;20166;-62
2021/06/04 08:52:30;;;;;;;11.48;9.57;;;53.30;29.80;;;;;;5238815;27;20123;-63
2021/06/04 08:55:06;;;;;;;8.95;8.05;;;53.30;30.00;;;;;;5239063;27;20568;-63
2021/06/04 08:57:47;;;;;;;8.80;7.90;;;53.60;30.10;;;;;;5239685;27;20107;-63
2021/06/04 09:00:17;;;;;;;9.25;8.38;;;54.90;30.00;;;;;;5240773;27;20411;-62
2021/06/04 09:02:47;;;;;;;12.88;10.52;;;55.80;29.40;;;;;;5240541;27;20119;-65
2021/06/04 09:05:19;;;;;;;10.20;9.07;;;55.20;29.20;;;;;;5240864;27;20174;-63
2021/06/04 09:07:48;;;;;;;11.73;8.80;;;54.90;29.70;;;;;;5239087;27;20111;-63
2021/06/04 09:10:22;;;;;;;11.23;10.02;;;55.30;29.70;;;;;;5239169;27;20122;-62
2021/06/04 09:12:53;;;;;;;8.32;7.50;;;54.60;29.40;;;;;;5239113;27;20139;-62
2021/06/04 09:15:23;;;;;;;11.65;8.70;;;53.70;29.60;;;;;;5239751;27;20111;-62
2021/06/04 09:17:58;;;;;;;12.63;10.73;;;52.70;30.30;;;;;;5241386;27;20170;-62
2021/06/04 09:20:44;;;;;;;10.10;9.10;;;52.70;30.00;;;;;;5240099;27;20452;-62
2021/06/04 09:23:14;;;;;;;7.62;6.95;;;53.30;30.00;;;;;;5239061;27;20107;-64
2021/06/04 09:25:57;;;;;;;11.63;9.10;;;53.90;29.60;;;;;;5239451;27;20198;-63
2021/06/04 09:28:31;;;;;;;10.52;9.10;;;51.80;29.70;;;;;;5238872;27;20448;-65
2021/06/04 09:30:59;;;;;;;10.80;7.65;;;53.50;30.10;;;;;;5239227;27;20126;-63
2021/06/04 09:33:30;;;;;;;9.70;8.50;;;54.60;29.40;;;;;;5238830;27;20134;-62
2021/06/04 09:36:06;;;;;;;9.73;8.35;;;52.40;29.50;;;;;;5239002;27;20505;-63
2021/06/04 09:38:37;;;;;;;11.45;9.95;;;50.40;30.20;;;;;;5238943;27;20104;-63
2021/06/04 09:41:38;;;;;;;9.90;8.90;;;45.90;32.00;;;;;;5238989;27;20184;-64
2021/06/04 09:44:26;;;;;;;10.93;9.40;;;40.50;35.90;;;;;;5152133;27;20137;-62
2021/06/04 09:47:02;;;;;;;16.05;9.52;;;38.60;39.00;;;;;;5152743;27;20140;-61
2021/06/04 09:49:53;;;;;;;11.65;9.73;;;39.60;39.10;;;;;;5149996;27;20155;-67
2021/06/04 09:52:36;;;;;;;9.68;7.87;;;40.30;38.00;;;;;;5149507;27;20483;-64
2021/06/04 09:55:25;;;;;;;12.73;8.48;;;39.00;39.70;;;;;;5150891;27;20125;-64
2021/06/04 09:58:08;;;;;;;13.80;8.43;;;37.90;40.00;;;;;;5151117;27;20128;-61
2021/06/04 10:00:38;;;;;;;11.73;7.80;;;35.40;41.80;;;;;;5151561;27;20183;-62
2021/06/04 10:03:27;;;;;;;9.82;8.82;;;35.20;43.70;;;;;;5152032;27;20140;-61
2021/06/04 10:06:39;;;;;;;11.98;8.55;;;34.50;43.20;;;;;;5152071;27;20152;-61
2021/06/04 10:09:25;;;;;;;10.45;9.45;;;33.50;45.10;;;;;;5070593;28;20187;-62
2021/06/04 10:12:02;;;;;;;10.50;8.60;;;32.50;46.70;;;;;;5070211;28;20110;-61
2021/06/04 10:14:47;;;;;;;10.68;8.02;;;32.30;48.20;;;;;;5069730;28;20178;-61
2021/06/04 10:17:59;;;;;;;10.18;8.73;;;32.20;47.80;;;;;;5070296;28;20153;-62
2021/06/04 10:20:31;;;;;;;9.38;7.55;;;31.90;48.60;;;;;;5080851;28;20142;-65
2021/06/04 10:23:07;;;;;;;9.80;7.82;;;32.00;48.50;;;;;;5089944;28;20106;-65
2021/06/04 10:25:42;;;;;;;11.75;9.10;;;32.20;48.30;;;;;;5090047;28;20157;-65
2021/06/04 10:28:46;;;;;;;8.50;7.18;;;32.30;48.10;;;;;;5089846;28;20397;-65
2021/06/04 10:31:48;;;;;;;8.82;8.00;;;32.60;47.20;;;;;;5043876;28;20126;-63
2021/06/04 10:34:40;;;;;;;9.32;7.53;;;32.30;46.90;;;;;;5010431;28;20138;-63
2021/06/04 10:37:13;;;;;;;11.18;8.15;;;32.00;48.00;;;;;;5010803;28;20714;-62
2021/06/04 10:39:46;;;;;;;11.48;9.40;;;31.70;49.20;;;;;;5011203;28;20174;-62
2021/06/04 10:42:23;;;;;;;16.20;10.63;;;31.20;49.40;;;;;;5012360;28;20131;-61
2021/06/04 10:45:01;;;;;;;16.35;9.43;;;30.00;51.80;;;;;;5018612;28;20246;-62
2021/06/04 10:47:38;;;;;;;12.45;9.05;;;29.60;51.60;;;;;;5051217;28;20200;-61
2021/06/04 10:50:11;;;;;;;12.35;10.00;;;29.70;53.00;;;;;;5050563;28;20181;-62
2021/06/04 10:52:52;;;;;;;10.80;9.70;;;29.30;53.30;;;;;;5051720;28;20126;-61
2021/06/04 10:55:22;;;;;;;16.05;11.10;;;28.80;54.90;;;;;;5051195;28;20143;-61
2021/06/04 10:57:52;;;;;;;11.95;10.13;;;28.80;54.50;;;;;;5111738;28;20141;-65
2021/06/04 11:00:24;;;;;;;11.40;9.45;;;29.00;54.90;;;;;;5111616;28;20105;-64
2021/06/04 11:03:05;;;;;;;13.90;10.32;;;29.20;55.10;;;;;;5111695;28;20292;-61
2021/06/04 11:05:45;;;;;;;12.80;9.90;;;29.30;54.30;;;;;;5112991;28;20499;-61
2021/06/04 11:08:28;;;;;;;15.55;10.18;;;29.00;54.30;;;;;;5127751;27;20136;-62
2021/06/04 11:11:02;;;;;;;11.00;8.75;;;29.00;55.70;;;;;;5195860;27;20142;-61
2021/06/04 11:13:38;;;;;;;11.63;10.50;;;29.30;55.10;;;;;;5217920;27;20379;-65
2021/06/04 11:16:13;;;;;;;15.27;10.57;;;29.20;54.40;;;;;;5218098;27;20121;-62
2021/06/04 11:18:46;;;;;;;15.73;12.80;;;28.60;57.50;;;;;;5219633;27;20126;-62
2021/06/04 11:21:25;;;;;;;14.65;11.18;;;27.90;57.90;;;;;;5218931;27;20509;-62
2021/06/04 11:23:57;;;;;;;16.90;10.25;;;28.90;57.70;;;;;;5219443;27;20128;-61
2021/06/04 11:26:31;;;;;;;15.50;11.48;;;29.60;56.00;;;;;;5230750;27;20139;-61
2021/06/04 11:29:01;;;;;;;12.27;9.95;;;29.70;55.80;;;;;;5239334;27;20512;-64
2021/06/04 11:31:50;;;;;;;19.20;14.13;;;30.00;55.80;;;;;;5239905;27;20134;-62
2021/06/04 11:34:27;;;;;;;15.48;11.70;;;30.30;54.10;;;;;;5236435;27;20468;-65
2021/06/04 11:36:54;;;;;;;16.58;11.93;;;30.70;54.70;;;;;;5240460;27;20177;-64
2021/06/04 11:39:31;;;;;;;14.18;11.30;;;31.20;53.90;;;;;;5241037;27;20108;-62
2021/06/04 11:42:00;;;;;;;13.05;11.30;;;31.30;53.20;;;;;;5240376;27;20107;-61
2021/06/04 11:44:29;;;;;;;15.40;11.27;;;31.00;53.50;;;;;;5239546;27;20122;-61
2021/06/04 11:47:29;;;;;;;14.35;11.60;;;30.50;54.20;;;;;;5239739;27;20442;-63
2021/06/04 11:50:32;;;;;;;13.93;11.02;;;30.40;53.90;;;;;;5238956;27;20132;-61
2021/06/04 11:53:25;;;;;;;16.92;11.77;;;30.70;54.40;;;;;;5240389;27;20546;-61
2021/06/04 11:55:54;;;;;;;15.73;13.95;;;30.70;54.40;;;;;;5239488;27;20118;-62
2021/06/04 11:58:46;;;;;;;11.30;9.80;;;29.80;54.60;;;;;;5242152;27;20168;-62
2021/06/04 12:01:40;;;;;;;14.73;11.95;;;30.00;56.50;;;;;;5239450;27;20540;-62
2021/06/04 12:04:19;;;;;;;16.70;10.88;;;30.30;54.90;;;;;;5229551;27;20147;-61
2021/06/04 12:07:25;;;;;;;12.27;8.98;;;30.10;55.70;;;;;;5239498;27;20530;-63
2021/06/04 12:09:53;;;;;;;13.02;11.20;;;30.00;56.30;;;;;;5239643;27;20127;-61
2021/06/04 12:12:37;;;;;;;15.20;11.73;;;30.20;55.10;;;;;;5240206;27;20127;-61
2021/06/04 12:15:39;;;;;;;20.50;16.50;;;30.20;55.10;;;;;;5240343;27;20448;-62
2021/06/04 12:18:34;;;;;;;19.62;15.13;;;29.70;55.40;;;;;;5154735;27;20537;-61
2021/06/04 12:21:01;;;;;;;18.23;14.85;;;28.70;58.00;;;;;;5101861;27;20552;-61
2021/06/04 12:23:49;;;;;;;22.35;14.60;;;28.00;59.40;;;;;;5240556;27;20112;-64
2021/06/04 12:26:35;;;;;;;15.15;13.57;;;27.70;60.40;;;;;;5239685;27;20150;-64
2021/06/04 12:29:21;;;;;;;19.10;16.87;;;27.90;60.60;;;;;;5239598;27;20111;-61
2021/06/04 12:31:53;;;;;;;19.73;14.77;;;28.40;59.20;;;;;;5239794;27;20125;-63
2021/06/04 12:34:52;;;;;;;22.15;13.98;;;29.10;59.60;;;;;;5239558;27;20116;-63
2021/06/04 12:37:30;;;;;;;17.95;14.38;;;28.90;59.10;;;;;;5232123;27;20167;-61
2021/06/04 12:40:23;;;;;;;16.17;13.32;;;29.20;58.70;;;;;;5241184;27;20141;-61
2021/06/04 12:43:11;;;;;;;12.82;10.65;;;29.20;58.30;;;;;;5239318;27;20138;-62
2021/06/04 12:45:39;;;;;;;18.27;13.95;;;29.30;59.90;;;;;;5239996;27;20104;-61
2021/06/04 12:48:22;;;;;;;15.82;11.75;;;29.40;57.60;;;;;;5241657;27;20112;-62
2021/06/04 12:51:02;;;;;;;15.85;11.38;;;29.50;57.80;;;;;;5240228;27;20119;-64
2021/06/04 12:53:33;;;;;;;13.75;10.02;;;29.00;57.80;;;;;;5239739;27;20108;-61
2021/06/04 12:56:21;;;;;;;13.90;10.10;;;28.80;58.60;;;;;;5240669;27;20294;-62
2021/06/04 12:58:54;;;;;;;13.05;10.38;;;28.30;59.40;;;;;;5239318;27;20127;-62